Impacts METAR Board
IDs:

KMIA - Miami Intl, FL, US

Updated at: 0100 UTC 28 May 2018
Potential Impact None Slight Moderate High
Time 27/13Z 27/14Z 27/15Z 27/16Z 27/17Z 27/18Z 27/19Z 27/20Z 27/21Z 27/22Z 27/23Z 28/00Z 28/01Z
Temp76 75 76 78 81 81 81 83 81 80 80 79 79
Dewpt76 75 76 77 75 76 75 75 75 75 76 75 77
Altim29.82 29.83 29.83 29.82 29.81 29.82 29.81 29.80 29.80 29.82 29.82 29.84 29.85
VIS4 2.5 6 7 10 10 10 10 10 10 10 10 10
CIG15 9 9 12 19 23 23 250 250 21 21 60 37
CoverOVCOVCOVCOVCOVCOVCBKNBKNBKNOVCOVCOVCOVC
FltCatMVFRIFRIFRMVFRMVFRMVFRMVFRVFRVFRMVFRMVFRVFRVFR
WX-RA BRRA BRTSRA BR--------------------
WDir130130170160170170160170170180170140150
WSpd13 15 13 14 15 12 17 19 17 18 15 11 5
WGst-- 22 19 22 25 22 30 30 26 -- -- -- --
Raw hourly METARs
KMIA 271303Z 13013KT 4SM -RA BR SCT009 BKN015CB BKN055 OVC140 24/24 A2982 RMK AO2 LTG DSNT E AND SE CB SE-SW MOV NE P0001 T02440244 $
KMIA 271353Z 13015G22KT 2 1/2SM R09/4500VP6000FT RA BR SCT003 BKN009 OVC025 24/24 A2983 RMK AO2 PK WND 15029/1308 RAEMMB35 TSB29E47 SLP100 CB OHD MOV N P0024 T02390239 $
KMIA 271453Z COR 17013G19KT 6SM TSRA BR BKN009 BKN017CB OVC030 24/24 A2983 RMK AO2 PK WND 16029/1434 LTG DSNT NE AND E TSE19B21E41B42E43B48 SLP100 OCNL LTGICCG NW-NE TS NW-NE MOV N P0078 60109 T02440244 51011
KMIA 271553Z 16014G22KT 7SM SCT008 BKN012 OVC035 26/25 A2982 RMK AO2 PK WND 18026/1521 LTG DSNT NE RAE39 TSE03 SLP098 CB DSNT N-NE P0008 T02560250
KMIA 271653Z 17015G25KT 10SM BKN019 BKN150 OVC250 27/24 A2981 RMK AO2 PK WND 16028/1632 SLP094 T02720239
KMIA 271753Z 17012G22KT 10SM BKN023 BKN030 OVC130 27/24 A2982 RMK AO2 SLP100 60117 T02720244 10272 20233 55000
KMIA 271853Z 16017G30KT 10SM BKN023 BKN060 27/24 A2981 RMK AO2 PK WND 18030/1845 SLP095 T02720239
KMIA 271953Z 17019G30KT 10SM SCT023 SCT060 BKN250 28/24 A2980 RMK AO2 PK WND 15031/1920 SLP091 T02830239
KMIA 272053Z 17017G26KT 10SM SCT021 SCT150 BKN250 27/24 A2980 RMK AO2 PK WND 18032/2014 SLP093 CB DSNT NW MOV NE T02720239 55007
KMIA 272153Z 18018KT 10SM BKN021 BKN050 OVC250 27/24 A2982 RMK AO2 SLP097 T02670239 $
KMIA 272253Z 17015KT 10SM BKN021 BKN027 OVC050 27/24 A2982 RMK AO2 LTG DSNT W AND NW SLP097 CB DSNT W-NW MOV NE T02670244 $
KMIA 272353Z 14011KT 10SM SCT016 BKN060 BKN075 OVC250 26/24 A2984 RMK AO2 SLP105 T02610239 10283 20261 53013 $
KMIA 280053Z 15005KT 10SM SCT017 BKN037 BKN060 OVC250 26/25 A2985 RMK AO2 RAB21E30 SLP109 P0000 T02610250 $



Page loaded:  01:36 UTC  |   06:36 PM Pacific  |   07:36 PM Mountain  |   08:36 PM Central  |   09:36 PM Eastern

 

ADVISORIES

FORECASTS

FORECASTS

OBSERVATIONS

USER TOOLS

ABOUT US